Jakobshavn, Greenland
Current Conditions -  °F | °C
As of 9:50 PM on Sunday 21 Dec 2014 (Local Time) from BGJN Reporting Station
Light Snow Light Snow  
Wind Chill: -2°   Ceiling: 2400
Heat Index: 10°   Visibility: 2.9mi
Dew Point:   Wind: 9mph
Humidity: 79%   Direction: 140°SE
Pressure: 29.91"   Gusts: NA
Location:  69.21°N, 51.09°W
Report Text: BGJN 212350Z AUTO 14008KT 4700NDV -SG BR FEW016/// BKN024/// OVC028/// M12/M15 Q1013
Loading
Personal Weather Stations






























Interactive Weather Map New forecast layout! Learn more

10-Day Weather Forecast

Advertisements
Track Severe Weather on mobile